Spirit Of America — WDB8298 — position and weather

sailwx.info

Track history (hours):
 
Tides and Currents Weather Stations Pressure Air Temp Water Temp Dewpoint Dewpoint Depression Visibility Wind Speed Wind Dir Waves Ship Positions

Spirit Of America

Owner: CITY OF NEW YORK, Brooklyn, NY. More information available from US FCC via Universal Licensing System and Coast Guard Vessel Documentation Center.

Last reported at 2018-May-24 21:01 UTC. Time now 2018-May-24 21:12 UTC.
Position N 40°39' W 074°04'.

Length 104 m; draft 4 m.

Type: Passenger vessel. MMSI: 366902394.

Date/timePositionNaut miles runAvg speedWind from/ knotsBaromVisibWave heightAir tempDewpointWater temp
2018-May-24 21:01N 40°39' W 074°04'4 7.2
2018-May-24 20:30N 40°42' W 074°01'4 8.3
2018-May-24 20:01N 40°39' W 074°04'0 0.3
2018-May-24 19:30N 40°39' W 074°04'0 0.0
2018-May-24 19:00N 40°39' W 074°04'0 0.0
2018-May-24 18:30N 40°39' W 074°04'0 0.0
2018-May-24 18:00N 40°39' W 074°04'0 0.0
2018-May-24 17:30N 40°39' W 074°04'0 0.0
2018-May-24 17:00N 40°39' W 074°04'0 0.1
2018-May-24 16:30N 40°39' W 074°04'0 0.3
2018-May-24 16:00N 40°39' W 074°04'4 8.6
2018-May-24 15:30N 40°42' W 074°01'4 8.5
2018-May-24 15:00N 40°39' W 074°04'4 8.5
2018-May-24 14:30N 40°42' W 074°01'4 6.6
2018-May-24 13:51N 40°39' W 074°04'412.0
2018-May-24 13:30N 40°42' W 074°01'4 0.9
2018-May-24 09:00N 40°39' W 074°04'0 0.0
2018-May-24 08:30N 40°39' W 074°04'0 0.1
2018-May-24 08:00N 40°39' W 074°04'0 0.0
2018-May-24 07:30N 40°39' W 074°04'0 0.0
2018-May-24 07:00N 40°39' W 074°04'0 0.0
2018-May-24 06:30N 40°39' W 074°04'0 0.0
2018-May-24 06:00N 40°39' W 074°04'0 0.0
2018-May-24 05:27N 40°39' W 074°04'0 0.0
2018-May-24 05:00N 40°39' W 074°04'0 0.0
2018-May-24 04:30N 40°39' W 074°04'0 0.0
2018-May-24 04:01N 40°39' W 074°04'4 8.6
2018-May-24 03:30N 40°42' W 074°01'4 8.5
2018-May-24 03:01N 40°39' W 074°04'0 0.0
2018-May-24 02:23N 40°39' W 074°04'411.2
2018-May-24 02:01N 40°42' W 074°01'4 8.3
2018-May-24 01:30N 40°39' W 074°04'0 0.0
2018-May-24 00:32N 40°39' W 074°04'0 4.8
2018-May-24 00:30N 40°39' W 074°04'4 8.3
2018-May-24 00:00N 40°42' W 074°01'4 8.6
2018-May-23 23:30N 40°39' W 074°04'4 8.6
2018-May-23 23:00N 40°42' W 074°01'4 8.5
2018-May-23 22:30N 40°39' W 074°04'4 7.4
2018-May-23 22:00N 40°42' W 074°01'3 5.7
2018-May-23 21:31N 40°39' W 074°03'0 0.6
2018-May-23 21:01N 40°40' W 074°03'3 6.0
2018-May-23 20:31N 40°42' W 074°01'4 8.4
2018-May-23 20:00N 40°39' W 074°04'0 0.2
2018-May-23 19:30N 40°39' W 074°04'0 0.0
2018-May-23 19:00N 40°39' W 074°04'0 0.0
2018-May-23 18:30N 40°39' W 074°04'0 0.0
2018-May-23 18:00N 40°39' W 074°04'0 0.0
2018-May-23 17:30N 40°39' W 074°04'0 0.2
2018-May-23 17:00N 40°39' W 074°04'0 0.0
2018-May-23 16:30N 40°39' W 074°04'4 8.6
2018-May-23 16:01N 40°42' W 074°01'4 8.6
2018-May-23 15:30N 40°39' W 074°04'0 0.0
2018-May-23 15:01N 40°39' W 074°04'4 8.6
2018-May-23 14:30N 40°42' W 074°01'4 8.6
2018-May-23 14:00N 40°39' W 074°04'2 4.3
2018-May-23 13:30N 40°40' W 074°03'0 0.1
2018-May-23 13:00N 40°40' W 074°02'0 0.3
2018-May-23 12:30N 40°40' W 074°03'1 1.5
2018-May-23 12:00N 40°41' W 074°02'3 5.5
2018-May-23 11:30N 40°39' W 074°04'4 7.9
2018-May-23 11:00N 40°42' W 074°01'4 8.2
2018-May-23 10:30N 40°39' W 074°04'1 1.5
2018-May-23 10:00N 40°38' W 074°04'1 1.4
2018-May-23 09:30N 40°39' W 074°04'0 0.4
2018-May-23 09:00N 40°39' W 074°04'0 0.1
2018-May-23 08:30N 40°39' W 074°04'0 0.1
2018-May-23 07:58N 40°39' W 074°04'0 0.0
2018-May-23 07:28N 40°39' W 074°04'0 0.0
2018-May-23 06:58N 40°39' W 074°04'0 0.0
2018-May-23 06:28N 40°39' W 074°04'0 0.0
2018-May-23 05:58N 40°39' W 074°04'0 0.0
2018-May-23 05:28N 40°39' W 074°04'0 0.0
2018-May-23 04:58N 40°39' W 074°04'0 0.0
2018-May-23 04:28N 40°39' W 074°04'0 0.0
2018-May-23 03:59N 40°39' W 074°04'4 9.1
2018-May-23 03:30N 40°42' W 074°01'4 8.6
2018-May-23 03:00N 40°39' W 074°04'0 0.0
2018-May-23 02:30N 40°39' W 074°04'4 8.6
2018-May-23 02:01N 40°42' W 074°01'4 8.5
2018-May-23 01:31N 40°39' W 074°04'0 0.0
2018-May-23 01:00N 40°39' W 074°04'0 0.0
2018-May-23 00:31N 40°39' W 074°04'0 0.6
2018-May-23 00:01N 40°39' W 074°04'0 0.6
2018-May-22 23:30N 40°39' W 074°04'4 8.6
2018-May-22 23:01N 40°42' W 074°01'2 4.5
2018-May-22 22:30N 40°40' W 074°03'0 0.2
2018-May-22 22:01N 40°40' W 074°03'1 2.2
2018-May-22 21:30N 40°41' W 074°02'3 5.7
2018-May-22 21:01N 40°39' W 074°04'4 8.0
2018-May-22 20:31N 40°42' W 074°01'4 8.3
2018-May-22 20:01N 40°39' W 074°04'0 0.2
2018-May-22 19:31N 40°39' W 074°04'0 0.0
2018-May-22 19:00N 40°39' W 074°04'0 0.0
2018-May-22 18:31N 40°39' W 074°04'0 0.0
2018-May-22 18:00N 40°39' W 074°04'0 0.0
2018-May-22 17:30N 40°39' W 074°04'0 0.0
2018-May-22 17:00N 40°39' W 074°04'0 0.0
2018-May-22 16:30N 40°39' W 074°04'0 0.0
2018-May-22 16:00N 40°39' W 074°04'0 0.0
2018-May-22 15:30N 40°39' W 074°04'0 0.1
2018-May-22 15:00N 40°39' W 074°04'4 8.6
2018-May-22 14:30N 40°42' W 074°01'4 8.6
2018-May-22 14:00N 40°39' W 074°04'4 7.7
2018-May-22 13:31N 40°42' W 074°01'3 5.7
2018-May-22 13:00N 40°39' W 074°03'2 3.6
2018-May-22 12:30N 40°41' W 074°02'0 0.6
2018-May-22 12:00N 40°41' W 074°02'1 2.1
2018-May-22 11:31N 40°40' W 074°03'2 3.2
2018-May-22 11:01N 40°41' W 074°02'3 6.0
2018-May-22 10:31N 40°39' W 074°04'0 0.1
2018-May-22 10:00N 40°39' W 074°04'0 0.1
2018-May-22 09:30N 40°39' W 074°04'0 0.0
2018-May-22 09:00N 40°39' W 074°04'0 0.0
2018-May-22 08:30N 40°39' W 074°04'0 0.0
2018-May-22 07:59N 40°39' W 074°04'0 0.0
2018-May-22 07:29N 40°39' W 074°04'0 0.0
2018-May-22 06:59N 40°39' W 074°04'0 0.0
2018-May-22 06:29N 40°39' W 074°04'0 0.0
2018-May-22 05:59N 40°39' W 074°04'0 0.0
2018-May-22 05:29N 40°39' W 074°04'0 0.0
2018-May-22 04:59N 40°39' W 074°04'0 0.0
2018-May-22 04:31N 40°39' W 074°04'0 0.0
2018-May-22 04:00N 40°39' W 074°04'4 8.5
2018-May-22 03:30N 40°42' W 074°01'4 8.6
2018-May-22 03:01N 40°39' W 074°04'0 0.0
2018-May-22 02:30N 40°39' W 074°04'0 0.0
2018-May-22 02:00N 40°39' W 074°04'4 8.6
2018-May-22 01:30N 40°42' W 074°01'4 8.6
2018-May-22 01:00N 40°39' W 074°04'0 0.0
2018-May-22 00:30N 40°39' W 074°04'4 8.6
2018-May-22 00:00N 40°42' W 074°01'4 8.7
2018-May-21 23:30N 40°39' W 074°04'0 0.0
2018-May-21 23:00N 40°39' W 074°04'0 0.0
2018-May-21 22:30N 40°39' W 074°04'4 8.4
2018-May-21 22:00N 40°42' W 074°01'4 7.3
2018-May-21 21:30N 40°39' W 074°03'1 1.1
2018-May-21 21:00N 40°39' W 074°04'4 7.9
2018-May-21 20:31N 40°42' W 074°01'4 7.9
2018-May-21 20:00N 40°39' W 074°04'0 0.6
2018-May-21 19:30N 40°39' W 074°04'0 0.0
2018-May-21 19:00N 40°39' W 074°04'0 0.0
2018-May-21 18:30N 40°39' W 074°04'0 0.0
2018-May-21 18:00N 40°39' W 074°04'0 0.0
2018-May-21 17:30N 40°39' W 074°04'0 0.8
2018-May-21 17:01N 40°39' W 074°04'4 7.9
2018-May-21 16:30N 40°42' W 074°01'4 7.3
2018-May-21 15:55N 40°39' W 074°04'410.4
2018-May-21 15:30N 40°42' W 074°01'4 8.6
2018-May-21 15:01N 40°39' W 074°04'0 0.1
2018-May-21 14:30N 40°39' W 074°04'0 0.0
2018-May-21 14:00N 40°39' W 074°04'2 4.5
2018-May-21 13:31N 40°40' W 074°03'0 0.4
2018-May-21 13:00N 40°41' W 074°02'0 0.8
2018-May-21 12:30N 40°40' W 074°03'0 0.7
2018-May-21 12:00N 40°40' W 074°02'2 4.2
2018-May-21 11:31N 40°39' W 074°04'3 6.5
2018-May-21 11:00N 40°41' W 074°02'3 6.9
2018-May-21 10:30N 40°39' W 074°04'0 0.0
2018-May-21 10:00N 40°39' W 074°04'0 0.0
2018-May-21 09:30N 40°39' W 074°04'0 0.0
2018-May-21 09:00N 40°39' W 074°04'0 0.0
2018-May-21 08:31N 40°39' W 074°04'0 0.1
2018-May-21 08:00N 40°39' W 074°04'0 0.0
2018-May-21 07:30N 40°39' W 074°04'0 0.0
2018-May-21 07:00N 40°39' W 074°04'0 0.0
2018-May-21 06:30N 40°39' W 074°04'0 0.0
2018-May-21 06:00N 40°39' W 074°04'0 0.0
2018-May-21 05:30N 40°39' W 074°04'0 0.0
2018-May-21 05:00N 40°39' W 074°04'0 0.0
2018-May-21 04:30N 40°39' W 074°04'4 8.6
2018-May-21 04:01N 40°42' W 074°01'4 8.6
2018-May-21 03:30N 40°39' W 074°04'4 8.6
2018-May-21 03:00N 40°42' W 074°01'4 8.6
2018-May-21 02:30N 40°39' W 074°04'4 8.6
2018-May-21 02:00N 40°42' W 074°01'4 8.6
2018-May-21 01:30N 40°39' W 074°04'4 8.6
2018-May-21 01:00N 40°42' W 074°01'4 8.7
2018-May-21 00:30N 40°39' W 074°04'4 8.6
2018-May-21 00:01N 40°42' W 074°01'4 8.6
2018-May-20 23:30N 40°39' W 074°04'0 0.0
2018-May-20 23:00N 40°39' W 074°04'4 8.6
2018-May-20 22:30N 40°42' W 074°01'4 8.7
2018-May-20 22:00N 40°39' W 074°04'0 0.1
2018-May-20 21:31N 40°39' W 074°04'4 8.6
2018-May-20 21:00N 40°42' W 074°01'4 8.5
2018-May-20 20:30N 40°39' W 074°04'0 0.0
2018-May-20 20:00N 40°39' W 074°04'4 8.6
2018-May-20 19:31N 40°42' W 074°01'4 8.5
2018-May-20 19:00N 40°39' W 074°04'0 0.1
2018-May-20 18:31N 40°39' W 074°04'4 8.5
2018-May-20 18:00N 40°42' W 074°01'4 8.6
2018-May-20 17:31N 40°39' W 074°04'0 0.0
2018-May-20 17:01N 40°39' W 074°04'4 8.6
2018-May-20 16:31N 40°42' W 074°01'4 8.4
2018-May-20 16:00N 40°39' W 074°04'0 0.1
2018-May-20 15:30N 40°39' W 074°04'4 8.7
2018-May-20 15:00N 40°42' W 074°01'4 8.5
2018-May-20 14:30N 40°39' W 074°04'4 8.6
2018-May-20 14:00N 40°42' W 074°01'4 8.6
2018-May-20 13:30N 40°39' W 074°04'4 8.5
2018-May-20 13:00N 40°42' W 074°01'4 8.6
2018-May-20 12:30N 40°39' W 074°04'4 8.5
2018-May-20 12:00N 40°42' W 074°01'4 8.6
2018-May-20 11:30N 40°39' W 074°04'4 8.3
2018-May-20 11:00N 40°42' W 074°01'4 8.8
2018-May-20 10:31N 40°39' W 074°04'0 0.0
2018-May-20 10:00N 40°39' W 074°04'0 0.0
2018-May-20 09:31N 40°39' W 074°04'0 0.0
2018-May-20 09:00N 40°39' W 074°04'0 0.0
2018-May-20 08:27N 40°39' W 074°04'0 0.0
2018-May-20 07:54N 40°39' W 074°04'0 0.0
2018-May-20 07:30N 40°39' W 074°04'0 0.0
2018-May-20 06:57N 40°39' W 074°04'0 0.0
2018-May-20 06:30N 40°39' W 074°04'0 0.0
2018-May-20 06:00N 40°39' W 074°04'0 0.0
2018-May-20 05:30N 40°39' W 074°04'0 0.0
2018-May-20 05:00N 40°39' W 074°04'0 0.0
2018-May-20 04:30N 40°39' W 074°04'4 8.8
2018-May-20 04:00N 40°42' W 074°01'4 8.6
2018-May-20 03:30N 40°39' W 074°04'4 8.5
2018-May-20 03:00N 40°42' W 074°01'4 8.7
2018-May-20 02:31N 40°39' W 074°04'4 8.6
2018-May-20 02:00N 40°42' W 074°01'4 8.6
2018-May-20 01:30N 40°39' W 074°04'4 8.7
2018-May-20 01:01N 40°42' W 074°01'4 8.6
2018-May-20 00:30N 40°39' W 074°04'4 8.6
2018-May-20 00:01N 40°42' W 074°01'4 8.6
2018-May-19 23:30N 40°39' W 074°04'0 0.0
2018-May-19 23:00N 40°39' W 074°04'4 8.6
2018-May-19 22:30N 40°42' W 074°01'4 8.6
2018-May-19 22:00N 40°39' W 074°04'0 0.0
2018-May-19 21:30N 40°39' W 074°04'4 8.5
2018-May-19 21:00N 40°42' W 074°01'4 8.6
2018-May-19 20:30N 40°39' W 074°04'0 0.0
2018-May-19 20:00N 40°39' W 074°04'4 8.6
2018-May-19 19:30N 40°42' W 074°01'4 8.5
2018-May-19 19:00N 40°39' W 074°04'0 0.1
2018-May-19 18:30N 40°39' W 074°04'4 8.6
2018-May-19 18:00N 40°42' W 074°01'4 8.6
2018-May-19 17:30N 40°39' W 074°04'0 0.1
2018-May-19 17:00N 40°39' W 074°04'4 8.7
2018-May-19 16:30N 40°42' W 074°01'4 8.6
2018-May-19 16:00N 40°39' W 074°04'0 0.0
2018-May-19 15:30N 40°39' W 074°04'4 8.6
2018-May-19 15:00N 40°42' W 074°01'4 8.6
2018-May-19 14:31N 40°39' W 074°04'4 8.5
2018-May-19 14:00N 40°42' W 074°01'4 8.6
2018-May-19 13:30N 40°39' W 074°04'4 8.6
2018-May-19 13:01N 40°42' W 074°01'4 8.6
2018-May-19 12:30N 40°39' W 074°04'4 8.6
2018-May-19 12:01N 40°42' W 074°01'4 8.5
2018-May-19 11:30N 40°39' W 074°04'0 0.1
2018-May-19 11:00N 40°39' W 074°04'0 0.1
2018-May-19 10:30N 40°39' W 074°04'0 0.1
2018-May-19 10:00N 40°39' W 074°04'0 0.1
2018-May-19 09:30N 40°39' W 074°04'0 0.1
2018-May-19 09:00N 40°39' W 074°04'0 0.1
2018-May-19 08:30N 40°39' W 074°04'0 0.0
2018-May-19 08:00N 40°39' W 074°04'0 0.0
2018-May-19 07:30N 40°39' W 074°04'0 0.0
2018-May-19 07:00N 40°39' W 074°04'0 0.0
2018-May-19 06:30N 40°39' W 074°04'0 0.0
2018-May-19 06:00N 40°39' W 074°04'0 0.0
2018-May-19 05:30N 40°39' W 074°04'0 0.0
2018-May-19 05:00N 40°39' W 074°04'0 0.0
2018-May-19 04:30N 40°39' W 074°04'0 0.0
2018-May-19 04:00N 40°39' W 074°04'4 8.6
2018-May-19 03:30N 40°42' W 074°01'4 8.6
2018-May-19 03:01N 40°39' W 074°04'0 0.0
2018-May-19 02:23N 40°39' W 074°04'411.1
2018-May-19 02:01N 40°42' W 074°01'4 8.5
2018-May-19 01:30N 40°39' W 074°04'0 0.0
2018-May-19 01:00N 40°39' W 074°04'0 0.0
2018-May-19 00:30N 40°39' W 074°04'4 8.6
2018-May-19 00:00N 40°42' W 074°01'4 8.6
2018-May-18 23:30N 40°39' W 074°04'4 8.6
2018-May-18 23:00N 40°42' W 074°01'4 8.5
2018-May-18 22:30N 40°39' W 074°04'4 8.5
2018-May-18 22:00N 40°42' W 074°01'2 3.4
2018-May-18 21:30N 40°41' W 074°02'2 5.0
2018-May-18 21:00N 40°39' W 074°04'4 7.5
2018-May-18 20:31N 40°42' W 074°01'4 7.7
2018-May-18 20:00N 40°39' W 074°04'0 0.0
2018-May-18 19:30N 40°39' W 074°04'0 0.0
2018-May-18 19:00N 40°39' W 074°04'0 0.0
2018-May-18 18:30N 40°39' W 074°04'0 0.0
2018-May-18 18:00N 40°39' W 074°04'0 0.0
2018-May-18 17:30N 40°39' W 074°04'4 8.6
2018-May-18 17:00N 40°42' W 074°01'4 8.6
2018-May-18 16:30N 40°39' W 074°04'4 8.6
2018-May-18 16:00N 40°42' W 074°01'4 8.6
2018-May-18 15:30N 40°39' W 074°04'0 0.0
2018-May-18 15:00N 40°39' W 074°04'4 8.6
2018-May-18 14:30N 40°42' W 074°01'4 8.6
2018-May-18 14:00N 40°39' W 074°04'1 2.4
2018-May-18 13:30N 40°40' W 074°03'2 3.8
2018-May-18 13:00N 40°41' W 074°02'2 3.8
2018-May-18 12:30N 40°40' W 074°03'2 3.4
2018-May-18 12:00N 40°41' W 074°02'3 5.7
2018-May-18 11:31N 40°39' W 074°04'3 6.9
2018-May-18 11:00N 40°42' W 074°02'4 7.3
2018-May-18 10:30N 40°39' W 074°04'0 0.0
2018-May-18 10:00N 40°39' W 074°04'0 0.0
2018-May-18 09:30N 40°39' W 074°04'0 0.0
2018-May-18 09:00N 40°39' W 074°04'0 0.0
2018-May-18 08:30N 40°39' W 074°04'0 0.0
2018-May-18 07:59N 40°39' W 074°04'0 0.0
2018-May-18 07:29N 40°39' W 074°04'0 0.0
2018-May-18 06:59N 40°39' W 074°04'0 0.0
2018-May-18 06:29N 40°39' W 074°04'0 0.0
2018-May-18 05:59N 40°39' W 074°04'0 0.0
2018-May-18 05:29N 40°39' W 074°04'0 0.0
2018-May-18 04:59N 40°39' W 074°04'0 0.0
2018-May-18 04:29N 40°39' W 074°04'0 0.0
2018-May-18 04:01N 40°39' W 074°04'4 8.5
2018-May-18 03:30N 40°42' W 074°01'4 8.6
2018-May-18 03:00N 40°39' W 074°04'0 0.0
2018-May-18 02:30N 40°39' W 074°04'4 8.6
2018-May-18 02:00N 40°42' W 074°01'4 8.6
2018-May-18 01:30N 40°39' W 074°04'0 0.0
2018-May-18 01:00N 40°39' W 074°04'0 0.0
2018-May-18 00:30N 40°39' W 074°04'4 8.6
2018-May-18 00:00N 40°42' W 074°01'4 8.6
2018-May-17 23:30N 40°39' W 074°04'3 5.7
2018-May-17 23:01N 40°41' W 074°02'1 2.6
2018-May-17 22:31N 40°40' W 074°03'2 3.3
2018-May-17 22:00N 40°41' W 074°02'1 1.5
2018-May-17 21:31N 40°41' W 074°02'2 4.1
2018-May-17 21:00N 40°39' W 074°04'3 6.8
2018-May-17 20:31N 40°42' W 074°01'4 7.6
2018-May-17 20:00N 40°39' W 074°04'0 0.1
2018-May-17 19:30N 40°39' W 074°04'0 0.0
2018-May-17 19:00N 40°39' W 074°04'0 0.0
2018-May-17 18:30N 40°39' W 074°04'0 0.0
2018-May-17 18:00N 40°39' W 074°04'0 0.0
2018-May-17 17:30N 40°39' W 074°04'0 0.0
2018-May-17 17:00N 40°39' W 074°04'0 0.0
2018-May-17 16:30N 40°39' W 074°04'0 0.0
2018-May-17 16:00N 40°39' W 074°04'4 8.6
2018-May-17 15:30N 40°42' W 074°01'4 8.5
2018-May-17 15:00N 40°39' W 074°04'4 8.6
2018-May-17 14:31N 40°42' W 074°01'4 8.5
2018-May-17 14:01N 40°39' W 074°04'3 5.3
2018-May-17 13:30N 40°41' W 074°02'0 0.3
2018-May-17 13:01N 40°41' W 074°02'1 2.2
2018-May-17 12:30N 40°40' W 074°03'1 2.1
2018-May-17 12:00N 40°41' W 074°02'2 4.8
2018-May-17 11:30N 40°39' W 074°04'4 7.7
2018-May-17 11:00N 40°42' W 074°01'4 8.2
2018-May-17 10:31N 40°39' W 074°04'0 0.0
2018-May-17 09:59N 40°39' W 074°04'0 0.0
2018-May-17 09:31N 40°39' W 074°04'0 0.0
2018-May-17 09:01N 40°39' W 074°04'0 0.0
2018-May-17 08:28N 40°39' W 074°04'0 0.0
2018-May-17 07:58N 40°39' W 074°04'0 0.0
2018-May-17 07:28N 40°39' W 074°04'0 0.0
2018-May-17 06:58N 40°39' W 074°04'0 0.0
2018-May-17 06:28N 40°39' W 074°04'0 0.0
2018-May-17 05:58N 40°39' W 074°04'0 0.0
2018-May-17 05:28N 40°39' W 074°04'0 0.0
2018-May-17 04:58N 40°39' W 074°04'0 0.0
2018-May-17 04:28N 40°39' W 074°04'0 0.0
2018-May-17 03:55N 40°39' W 074°04'0 0.1
2018-May-17 03:30N 40°39' W 074°04'0 0.1
2018-May-17 03:00N 40°39' W 074°04'0 0.0
2018-May-17 02:30N 40°39' W 074°04'4 8.6
2018-May-17 02:00N 40°42' W 074°01'4 8.6
2018-May-17 01:30N 40°39' W 074°04'0 0.0
2018-May-17 00:25N 40°39' W 074°04'410.4
2018-May-17 00:00N 40°42' W 074°01'4 8.6
2018-May-16 23:31N 40°39' W 074°04'2 3.0
2018-May-16 23:01N 40°40' W 074°03'1 2.8
2018-May-16 22:30N 40°41' W 074°02'1 2.1
2018-May-16 21:50N 40°42' W 074°01'1 3.9
2018-May-16 21:30N 40°41' W 074°02'2 4.4
2018-May-16 21:00N 40°39' W 074°03'2 4.7
2018-May-16 20:30N 40°41' W 074°02'3 6.4
2018-May-16 20:00N 40°39' W 074°04'0 0.0
2018-May-16 19:30N 40°39' W 074°04'0 0.1
2018-May-16 19:00N 40°39' W 074°04'0 0.1
2018-May-16 18:30N 40°39' W 074°04'0 0.0
2018-May-16 18:00N 40°39' W 074°04'0 0.1
2018-May-16 17:30N 40°39' W 074°04'4 8.7
2018-May-16 17:00N 40°42' W 074°01'4 8.5
2018-May-16 16:30N 40°39' W 074°04'4 8.7
2018-May-16 16:01N 40°42' W 074°01'4 8.6
2018-May-16 15:31N 40°39' W 074°04'0 0.0
2018-May-16 15:00N 40°39' W 074°04'4 8.6
2018-May-16 14:30N 40°42' W 074°01'4 8.6
2018-May-16 14:00N 40°39' W 074°04'2 3.5
2018-May-16 13:31N 40°40' W 074°03'1 2.4
2018-May-16 13:00N 40°41' W 074°02'1 2.7
2018-May-16 12:30N 40°40' W 074°03'1 2.7
2018-May-16 12:01N 40°41' W 074°02'2 4.3
2018-May-16 11:31N 40°39' W 074°03'3 6.0
2018-May-16 11:01N 40°42' W 074°01'4 7.7
2018-May-16 10:31N 40°39' W 074°04'1 1.6
2018-May-16 10:00N 40°38' W 074°04'1 1.2
2018-May-16 09:30N 40°39' W 074°04'0 0.4
2018-May-16 09:00N 40°39' W 074°04'0 0.0
2018-May-16 08:30N 40°39' W 074°04'0 0.1
2018-May-16 07:59N 40°39' W 074°04'0 0.0
2018-May-16 07:29N 40°39' W 074°04'0 0.0
2018-May-16 06:59N 40°39' W 074°04'0 0.0
2018-May-16 06:29N 40°39' W 074°04'0 0.0
2018-May-16 05:59N 40°39' W 074°04'0 0.0
2018-May-16 05:29N 40°39' W 074°04'0 0.0
2018-May-16 04:59N 40°39' W 074°04'0 0.0
2018-May-16 04:30N 40°39' W 074°04'0 0.0
2018-May-16 04:00N 40°39' W 074°04'4 8.6
2018-May-16 03:30N 40°42' W 074°01'4 8.6
2018-May-16 03:01N 40°39' W 074°04'0 0.0
2018-May-16 02:23N 40°39' W 074°04'411.2
2018-May-16 02:00N 40°42' W 074°01'4 8.5
2018-May-16 01:30N 40°39' W 074°04'0 0.0
2018-May-16 01:00N 40°39' W 074°04'0 0.0
2018-May-16 00:31N 40°39' W 074°04'4 8.6
2018-May-16 00:00N 40°42' W 074°01'4 8.6
2018-May-15 23:30N 40°39' W 074°04'4 7.2
2018-May-15 23:01N 40°42' W 074°02'3 5.8
2018-May-15 22:30N 40°39' W 074°03'3 6.2
2018-May-15 22:01N 40°42' W 074°02'1 2.4
2018-May-15 21:31N 40°41' W 074°02'1 2.1
2018-May-15 21:01N 40°40' W 074°03'2 3.3
2018-May-15 20:31N 40°41' W 074°02'3 6.4
2018-May-15 20:00N 40°39' W 074°04'0 0.0
2018-May-15 19:30N 40°39' W 074°04'0 0.0
2018-May-15 19:00N 40°39' W 074°04'0 0.0
2018-May-15 18:30N 40°39' W 074°04'0 0.0
2018-May-15 18:00N 40°39' W 074°04'0 0.0
2018-May-15 17:30N 40°39' W 074°04'0 0.0
2018-May-15 17:00N 40°39' W 074°04'0 0.0
2018-May-15 16:30N 40°39' W 074°04'0 0.0
2018-May-15 16:00N 40°39' W 074°04'0 0.0
2018-May-15 15:30N 40°39' W 074°04'0 0.0
2018-May-15 15:00N 40°39' W 074°04'0 0.2
2018-May-15 14:30N 40°39' W 074°04'4 7.8
2018-May-15 13:57N 40°42' W 074°01'4 9.7
2018-May-15 13:30N 40°39' W 074°04'1 1.5
2018-May-15 13:01N 40°39' W 074°03'4 7.3
2018-May-15 12:30N 40°42' W 074°01'4 8.7
2018-May-15 12:01N 40°39' W 074°04'3 6.0
2018-May-15 11:30N 40°41' W 074°02'1 1.5
2018-May-15 11:00N 40°42' W 074°01'4 7.5
2018-May-15 10:30N 40°39' W 074°04'4 8.6
2018-May-15 10:00N 40°42' W 074°01'4 8.6
2018-May-15 09:30N 40°39' W 074°04'0 0.1
2018-May-15 09:00N 40°39' W 074°04'0 0.0
2018-May-15 08:30N 40°39' W 074°04'0 0.0
2018-May-15 07:58N 40°39' W 074°04'0 0.0
2018-May-15 07:28N 40°39' W 074°04'0 0.0
2018-May-15 06:58N 40°39' W 074°04'0 0.0
2018-May-15 06:28N 40°39' W 074°04'0 0.0
2018-May-15 05:58N 40°39' W 074°04'0 0.0
2018-May-15 05:28N 40°39' W 074°04'0 0.0
2018-May-15 04:58N 40°39' W 074°04'0 0.0
2018-May-15 04:30N 40°39' W 074°04'0 0.0
2018-May-15 04:00N 40°39' W 074°04'4 8.6
2018-May-15 03:30N 40°42' W 074°01'4 8.6
2018-May-15 03:00N 40°39' W 074°04'0 0.0
2018-May-15 02:30N 40°39' W 074°04'4 8.5
2018-May-15 02:00N 40°42' W 074°01'4 8.6
2018-May-15 01:30N 40°39' W 074°04'0 0.1
2018-May-15 01:00N 40°39' W 074°04'0 0.0
2018-May-15 00:30N 40°39' W 074°04'4 8.6
2018-May-15 00:00N 40°42' W 074°01'4 8.6
2018-May-14 23:30N 40°39' W 074°04'3 5.0
2018-May-14 23:00N 40°41' W 074°02'1 2.5
2018-May-14 22:31N 40°40' W 074°03'1 1.7
2018-May-14 22:00N 40°40' W 074°03'1 2.6
2018-May-14 21:30N 40°42' W 074°02'3 6.5
2018-May-14 21:01N 40°39' W 074°04'  
Track history (hours):
 
Tides and Currents Weather Stations Pressure Air Temp Water Temp Dewpoint Dewpoint Depression Visibility Wind Speed Wind Dir Waves Ship Positions

Spirit Of America

Owner: CITY OF NEW YORK, Brooklyn, NY. More information available from US FCC via Universal Licensing System and Coast Guard Vessel Documentation Center.

Last reported at 2018-May-24 21:01 UTC. Time now 2018-May-24 21:12 UTC.
Position N 40°39' W 074°04'.

Length 104 m; draft 4 m.

Type: Passenger vessel. MMSI: 366902394.

Date/timePositionNaut miles runAvg speedWind from/ knotsBaromVisibWave heightAir tempDewpointWater temp
2018-May-24 21:01N 40°39' W 074°04'4 7.2
2018-May-24 20:30N 40°42' W 074°01'4 8.3
2018-May-24 20:01N 40°39' W 074°04'0 0.3
2018-May-24 19:30N 40°39' W 074°04'0 0.0
2018-May-24 19:00N 40°39' W 074°04'0 0.0
2018-May-24 18:30N 40°39' W 074°04'0 0.0
2018-May-24 18:00N 40°39' W 074°04'0 0.0
2018-May-24 17:30N 40°39' W 074°04'0 0.0
2018-May-24 17:00N 40°39' W 074°04'0 0.1
2018-May-24 16:30N 40°39' W 074°04'0 0.3
2018-May-24 16:00N 40°39' W 074°04'4 8.6
2018-May-24 15:30N 40°42' W 074°01'4 8.5
2018-May-24 15:00N 40°39' W 074°04'4 8.5
2018-May-24 14:30N 40°42' W 074°01'4 6.6
2018-May-24 13:51N 40°39' W 074°04'412.0
2018-May-24 13:30N 40°42' W 074°01'4 0.9
2018-May-24 09:00N 40°39' W 074°04'0 0.0
2018-May-24 08:30N 40°39' W 074°04'0 0.1
2018-May-24 08:00N 40°39' W 074°04'0 0.0
2018-May-24 07:30N 40°39' W 074°04'0 0.0
2018-May-24 07:00N 40°39' W 074°04'0 0.0
2018-May-24 06:30N 40°39' W 074°04'0 0.0
2018-May-24 06:00N 40°39' W 074°04'0 0.0
2018-May-24 05:27N 40°39' W 074°04'0 0.0
2018-May-24 05:00N 40°39' W 074°04'0 0.0
2018-May-24 04:30N 40°39' W 074°04'0 0.0
2018-May-24 04:01N 40°39' W 074°04'4 8.6
2018-May-24 03:30N 40°42' W 074°01'4 8.5
2018-May-24 03:01N 40°39' W 074°04'0 0.0
2018-May-24 02:23N 40°39' W 074°04'411.2
2018-May-24 02:01N 40°42' W 074°01'4 8.3
2018-May-24 01:30N 40°39' W 074°04'0 0.0
2018-May-24 00:32N 40°39' W 074°04'0 4.8
2018-May-24 00:30N 40°39' W 074°04'4 8.3
2018-May-24 00:00N 40°42' W 074°01'4 8.6
2018-May-23 23:30N 40°39' W 074°04'4 8.6
2018-May-23 23:00N 40°42' W 074°01'4 8.5
2018-May-23 22:30N 40°39' W 074°04'4 7.4
2018-May-23 22:00N 40°42' W 074°01'3 5.7
2018-May-23 21:31N 40°39' W 074°03'0 0.6
2018-May-23 21:01N 40°40' W 074°03'3 6.0
2018-May-23 20:31N 40°42' W 074°01'4 8.4
2018-May-23 20:00N 40°39' W 074°04'0 0.2
2018-May-23 19:30N 40°39' W 074°04'0 0.0
2018-May-23 19:00N 40°39' W 074°04'0 0.0
2018-May-23 18:30N 40°39' W 074°04'0 0.0
2018-May-23 18:00N 40°39' W 074°04'0 0.0
2018-May-23 17:30N 40°39' W 074°04'0 0.2
2018-May-23 17:00N 40°39' W 074°04'0 0.0
2018-May-23 16:30N 40°39' W 074°04'4 8.6
2018-May-23 16:01N 40°42' W 074°01'4 8.6
2018-May-23 15:30N 40°39' W 074°04'0 0.0
2018-May-23 15:01N 40°39' W 074°04'4 8.6
2018-May-23 14:30N 40°42' W 074°01'4 8.6
2018-May-23 14:00N 40°39' W 074°04'2 4.3
2018-May-23 13:30N 40°40' W 074°03'0 0.1
2018-May-23 13:00N 40°40' W 074°02'0 0.3
2018-May-23 12:30N 40°40' W 074°03'1 1.5
2018-May-23 12:00N 40°41' W 074°02'3 5.5
2018-May-23 11:30N 40°39' W 074°04'4 7.9
2018-May-23 11:00N 40°42' W 074°01'4 8.2
2018-May-23 10:30N 40°39' W 074°04'1 1.5
2018-May-23 10:00N 40°38' W 074°04'1 1.4
2018-May-23 09:30N 40°39' W 074°04'0 0.4
2018-May-23 09:00N 40°39' W 074°04'0 0.1
2018-May-23 08:30N 40°39' W 074°04'0 0.1
2018-May-23 07:58N 40°39' W 074°04'0 0.0
2018-May-23 07:28N 40°39' W 074°04'0 0.0
2018-May-23 06:58N 40°39' W 074°04'0 0.0
2018-May-23 06:28N 40°39' W 074°04'0 0.0
2018-May-23 05:58N 40°39' W 074°04'0 0.0
2018-May-23 05:28N 40°39' W 074°04'0 0.0
2018-May-23 04:58N 40°39' W 074°04'0 0.0
2018-May-23 04:28N 40°39' W 074°04'0 0.0
2018-May-23 03:59N 40°39' W 074°04'4 9.1
2018-May-23 03:30N 40°42' W 074°01'4 8.6
2018-May-23 03:00N 40°39' W 074°04'0 0.0
2018-May-23 02:30N 40°39' W 074°04'4 8.6
2018-May-23 02:01N 40°42' W 074°01'4 8.5
2018-May-23 01:31N 40°39' W 074°04'0 0.0
2018-May-23 01:00N 40°39' W 074°04'0 0.0
2018-May-23 00:31N 40°39' W 074°04'0 0.6
2018-May-23 00:01N 40°39' W 074°04'0 0.6
2018-May-22 23:30N 40°39' W 074°04'4 8.6
2018-May-22 23:01N 40°42' W 074°01'2 4.5
2018-May-22 22:30N 40°40' W 074°03'0 0.2
2018-May-22 22:01N 40°40' W 074°03'1 2.2
2018-May-22 21:30N 40°41' W 074°02'3 5.7
2018-May-22 21:01N 40°39' W 074°04'4 8.0
2018-May-22 20:31N 40°42' W 074°01'4 8.3
2018-May-22 20:01N 40°39' W 074°04'0 0.2
2018-May-22 19:31N 40°39' W 074°04'0 0.0
2018-May-22 19:00N 40°39' W 074°04'0 0.0
2018-May-22 18:31N 40°39' W 074°04'0 0.0
2018-May-22 18:00N 40°39' W 074°04'0 0.0
2018-May-22 17:30N 40°39' W 074°04'0 0.0
2018-May-22 17:00N 40°39' W 074°04'0 0.0
2018-May-22 16:30N 40°39' W 074°04'0 0.0
2018-May-22 16:00N 40°39' W 074°04'0 0.0
2018-May-22 15:30N 40°39' W 074°04'0 0.1
2018-May-22 15:00N 40°39' W 074°04'4 8.6
2018-May-22 14:30N 40°42' W 074°01'4 8.6
2018-May-22 14:00N 40°39' W 074°04'4 7.7
2018-May-22 13:31N 40°42' W 074°01'3 5.7
2018-May-22 13:00N 40°39' W 074°03'2 3.6
2018-May-22 12:30N 40°41' W 074°02'0 0.6
2018-May-22 12:00N 40°41' W 074°02'1 2.1
2018-May-22 11:31N 40°40' W 074°03'2 3.2
2018-May-22 11:01N 40°41' W 074°02'3 6.0
2018-May-22 10:31N 40°39' W 074°04'0 0.1
2018-May-22 10:00N 40°39' W 074°04'0 0.1
2018-May-22 09:30N 40°39' W 074°04'0 0.0
2018-May-22 09:00N 40°39' W 074°04'0 0.0
2018-May-22 08:30N 40°39' W 074°04'0 0.0
2018-May-22 07:59N 40°39' W 074°04'0 0.0
2018-May-22 07:29N 40°39' W 074°04'0 0.0
2018-May-22 06:59N 40°39' W 074°04'0 0.0
2018-May-22 06:29N 40°39' W 074°04'0 0.0
2018-May-22 05:59N 40°39' W 074°04'0 0.0
2018-May-22 05:29N 40°39' W 074°04'0 0.0
2018-May-22 04:59N 40°39' W 074°04'0 0.0
2018-May-22 04:31N 40°39' W 074°04'0 0.0
2018-May-22 04:00N 40°39' W 074°04'4 8.5
2018-May-22 03:30N 40°42' W 074°01'4 8.6
2018-May-22 03:01N 40°39' W 074°04'0 0.0
2018-May-22 02:30N 40°39' W 074°04'0 0.0
2018-May-22 02:00N 40°39' W 074°04'4 8.6
2018-May-22 01:30N 40°42' W 074°01'4 8.6
2018-May-22 01:00N 40°39' W 074°04'0 0.0
2018-May-22 00:30N 40°39' W 074°04'4 8.6
2018-May-22 00:00N 40°42' W 074°01'4 8.7
2018-May-21 23:30N 40°39' W 074°04'0 0.0
2018-May-21 23:00N 40°39' W 074°04'0 0.0
2018-May-21 22:30N 40°39' W 074°04'4 8.4
2018-May-21 22:00N 40°42' W 074°01'4 7.3
2018-May-21 21:30N 40°39' W 074°03'1 1.1
2018-May-21 21:00N 40°39' W 074°04'4 7.9
2018-May-21 20:31N 40°42' W 074°01'4 7.9
2018-May-21 20:00N 40°39' W 074°04'0 0.6
2018-May-21 19:30N 40°39' W 074°04'0 0.0
2018-May-21 19:00N 40°39' W 074°04'0 0.0
2018-May-21 18:30N 40°39' W 074°04'0 0.0
2018-May-21 18:00N 40°39' W 074°04'0 0.0
2018-May-21 17:30N 40°39' W 074°04'0 0.8
2018-May-21 17:01N 40°39' W 074°04'4 7.9
2018-May-21 16:30N 40°42' W 074°01'4 7.3
2018-May-21 15:55N 40°39' W 074°04'410.4
2018-May-21 15:30N 40°42' W 074°01'4 8.6
2018-May-21 15:01N 40°39' W 074°04'0 0.1
2018-May-21 14:30N 40°39' W 074°04'0 0.0
2018-May-21 14:00N 40°39' W 074°04'2 4.5
2018-May-21 13:31N 40°40' W 074°03'0 0.4
2018-May-21 13:00N 40°41' W 074°02'0 0.8
2018-May-21 12:30N 40°40' W 074°03'0 0.7
2018-May-21 12:00N 40°40' W 074°02'2 4.2
2018-May-21 11:31N 40°39' W 074°04'3 6.5
2018-May-21 11:00N 40°41' W 074°02'3 6.9
2018-May-21 10:30N 40°39' W 074°04'0 0.0
2018-May-21 10:00N 40°39' W 074°04'0 0.0
2018-May-21 09:30N 40°39' W 074°04'0 0.0
2018-May-21 09:00N 40°39' W 074°04'0 0.0
2018-May-21 08:31N 40°39' W 074°04'0 0.1
2018-May-21 08:00N 40°39' W 074°04'0 0.0
2018-May-21 07:30N 40°39' W 074°04'0 0.0
2018-May-21 07:00N 40°39' W 074°04'0 0.0
2018-May-21 06:30N 40°39' W 074°04'0 0.0
2018-May-21 06:00N 40°39' W 074°04'0 0.0
2018-May-21 05:30N 40°39' W 074°04'0 0.0
2018-May-21 05:00N 40°39' W 074°04'0 0.0
2018-May-21 04:30N 40°39' W 074°04'4 8.6
2018-May-21 04:01N 40°42' W 074°01'4 8.6
2018-May-21 03:30N 40°39' W 074°04'4 8.6
2018-May-21 03:00N 40°42' W 074°01'4 8.6
2018-May-21 02:30N 40°39' W 074°04'4 8.6
2018-May-21 02:00N 40°42' W 074°01'4 8.6
2018-May-21 01:30N 40°39' W 074°04'4 8.6
2018-May-21 01:00N 40°42' W 074°01'4 8.7
2018-May-21 00:30N 40°39' W 074°04'4 8.6
2018-May-21 00:01N 40°42' W 074°01'4 8.6
2018-May-20 23:30N 40°39' W 074°04'0 0.0
2018-May-20 23:00N 40°39' W 074°04'4 8.6
2018-May-20 22:30N 40°42' W 074°01'4 8.7
2018-May-20 22:00N 40°39' W 074°04'0 0.1
2018-May-20 21:31N 40°39' W 074°04'4 8.6
2018-May-20 21:00N 40°42' W 074°01'4 8.5
2018-May-20 20:30N 40°39' W 074°04'0 0.0
2018-May-20 20:00N 40°39' W 074°04'4 8.6
2018-May-20 19:31N 40°42' W 074°01'4 8.5
2018-May-20 19:00N 40°39' W 074°04'0 0.1
2018-May-20 18:31N 40°39' W 074°04'4 8.5
2018-May-20 18:00N 40°42' W 074°01'4 8.6
2018-May-20 17:31N 40°39' W 074°04'0 0.0
2018-May-20 17:01N 40°39' W 074°04'4 8.6
2018-May-20 16:31N 40°42' W 074°01'4 8.4
2018-May-20 16:00N 40°39' W 074°04'0 0.1
2018-May-20 15:30N 40°39' W 074°04'4 8.7
2018-May-20 15:00N 40°42' W 074°01'4 8.5
2018-May-20 14:30N 40°39' W 074°04'4 8.6
2018-May-20 14:00N 40°42' W 074°01'4 8.6
2018-May-20 13:30N 40°39' W 074°04'4 8.5
2018-May-20 13:00N 40°42' W 074°01'4 8.6
2018-May-20 12:30N 40°39' W 074°04'4 8.5
2018-May-20 12:00N 40°42' W 074°01'4 8.6
2018-May-20 11:30N 40°39' W 074°04'4 8.3
2018-May-20 11:00N 40°42' W 074°01'4 8.8
2018-May-20 10:31N 40°39' W 074°04'0 0.0
2018-May-20 10:00N 40°39' W 074°04'0 0.0
2018-May-20 09:31N 40°39' W 074°04'0 0.0
2018-May-20 09:00N 40°39' W 074°04'0 0.0
2018-May-20 08:27N 40°39' W 074°04'0 0.0
2018-May-20 07:54N 40°39' W 074°04'0 0.0
2018-May-20 07:30N 40°39' W 074°04'0 0.0
2018-May-20 06:57N 40°39' W 074°04'0 0.0
2018-May-20 06:30N 40°39' W 074°04'0 0.0
2018-May-20 06:00N 40°39' W 074°04'0 0.0
2018-May-20 05:30N 40°39' W 074°04'0 0.0
2018-May-20 05:00N 40°39' W 074°04'0 0.0
2018-May-20 04:30N 40°39' W 074°04'4 8.8
2018-May-20 04:00N 40°42' W 074°01'4 8.6
2018-May-20 03:30N 40°39' W 074°04'4 8.5
2018-May-20 03:00N 40°42' W 074°01'4 8.7
2018-May-20 02:31N 40°39' W 074°04'4 8.6
2018-May-20 02:00N 40°42' W 074°01'4 8.6
2018-May-20 01:30N 40°39' W 074°04'4 8.7
2018-May-20 01:01N 40°42' W 074°01'4 8.6
2018-May-20 00:30N 40°39' W 074°04'4 8.6
2018-May-20 00:01N 40°42' W 074°01'4 8.6
2018-May-19 23:30N 40°39' W 074°04'0 0.0
2018-May-19 23:00N 40°39' W 074°04'4 8.6
2018-May-19 22:30N 40°42' W 074°01'4 8.6
2018-May-19 22:00N 40°39' W 074°04'0 0.0
2018-May-19 21:30N 40°39' W 074°04'4 8.5
2018-May-19 21:00N 40°42' W 074°01'4 8.6
2018-May-19 20:30N 40°39' W 074°04'0 0.0
2018-May-19 20:00N 40°39' W 074°04'4 8.6
2018-May-19 19:30N 40°42' W 074°01'4 8.5
2018-May-19 19:00N 40°39' W 074°04'0 0.1
2018-May-19 18:30N 40°39' W 074°04'4 8.6
2018-May-19 18:00N 40°42' W 074°01'4 8.6
2018-May-19 17:30N 40°39' W 074°04'0 0.1
2018-May-19 17:00N 40°39' W 074°04'4 8.7
2018-May-19 16:30N 40°42' W 074°01'4 8.6
2018-May-19 16:00N 40°39' W 074°04'0 0.0
2018-May-19 15:30N 40°39' W 074°04'4 8.6
2018-May-19 15:00N 40°42' W 074°01'4 8.6
2018-May-19 14:31N 40°39' W 074°04'4 8.5
2018-May-19 14:00N 40°42' W 074°01'4 8.6
2018-May-19 13:30N 40°39' W 074°04'4 8.6
2018-May-19 13:01N 40°42' W 074°01'4 8.6
2018-May-19 12:30N 40°39' W 074°04'4 8.6
2018-May-19 12:01N 40°42' W 074°01'4 8.5
2018-May-19 11:30N 40°39' W 074°04'0 0.1
2018-May-19 11:00N 40°39' W 074°04'0 0.1
2018-May-19 10:30N 40°39' W 074°04'0 0.1
2018-May-19 10:00N 40°39' W 074°04'0 0.1
2018-May-19 09:30N 40°39' W 074°04'0 0.1
2018-May-19 09:00N 40°39' W 074°04'0 0.1
2018-May-19 08:30N 40°39' W 074°04'0 0.0
2018-May-19 08:00N 40°39' W 074°04'0 0.0
2018-May-19 07:30N 40°39' W 074°04'0 0.0
2018-May-19 07:00N 40°39' W 074°04'0 0.0
2018-May-19 06:30N 40°39' W 074°04'0 0.0
2018-May-19 06:00N 40°39' W 074°04'0 0.0
2018-May-19 05:30N 40°39' W 074°04'0 0.0
2018-May-19 05:00N 40°39' W 074°04'0 0.0
2018-May-19 04:30N 40°39' W 074°04'0 0.0
2018-May-19 04:00N 40°39' W 074°04'4 8.6
2018-May-19 03:30N 40°42' W 074°01'4 8.6
2018-May-19 03:01N 40°39' W 074°04'0 0.0
2018-May-19 02:23N 40°39' W 074°04'411.1
2018-May-19 02:01N 40°42' W 074°01'4 8.5
2018-May-19 01:30N 40°39' W 074°04'0 0.0
2018-May-19 01:00N 40°39' W 074°04'0 0.0
2018-May-19 00:30N 40°39' W 074°04'4 8.6
2018-May-19 00:00N 40°42' W 074°01'4 8.6
2018-May-18 23:30N 40°39' W 074°04'4 8.6
2018-May-18 23:00N 40°42' W 074°01'4 8.5
2018-May-18 22:30N 40°39' W 074°04'4 8.5
2018-May-18 22:00N 40°42' W 074°01'2 3.4
2018-May-18 21:30N 40°41' W 074°02'2 5.0
2018-May-18 21:00N 40°39' W 074°04'4 7.5
2018-May-18 20:31N 40°42' W 074°01'4 7.7
2018-May-18 20:00N 40°39' W 074°04'0 0.0
2018-May-18 19:30N 40°39' W 074°04'0 0.0
2018-May-18 19:00N 40°39' W 074°04'0 0.0
2018-May-18 18:30N 40°39' W 074°04'0 0.0
2018-May-18 18:00N 40°39' W 074°04'0 0.0
2018-May-18 17:30N 40°39' W 074°04'4 8.6
2018-May-18 17:00N 40°42' W 074°01'4 8.6
2018-May-18 16:30N 40°39' W 074°04'4 8.6
2018-May-18 16:00N 40°42' W 074°01'4 8.6
2018-May-18 15:30N 40°39' W 074°04'0 0.0
2018-May-18 15:00N 40°39' W 074°04'4 8.6
2018-May-18 14:30N 40°42' W 074°01'4 8.6
2018-May-18 14:00N 40°39' W 074°04'1 2.4
2018-May-18 13:30N 40°40' W 074°03'2 3.8
2018-May-18 13:00N 40°41' W 074°02'2 3.8
2018-May-18 12:30N 40°40' W 074°03'2 3.4
2018-May-18 12:00N 40°41' W 074°02'3 5.7
2018-May-18 11:31N 40°39' W 074°04'3 6.9
2018-May-18 11:00N 40°42' W 074°02'4 7.3
2018-May-18 10:30N 40°39' W 074°04'0 0.0
2018-May-18 10:00N 40°39' W 074°04'0 0.0
2018-May-18 09:30N 40°39' W 074°04'0 0.0
2018-May-18 09:00N 40°39' W 074°04'0 0.0
2018-May-18 08:30N 40°39' W 074°04'0 0.0
2018-May-18 07:59N 40°39' W 074°04'0 0.0
2018-May-18 07:29N 40°39' W 074°04'0 0.0
2018-May-18 06:59N 40°39' W 074°04'0 0.0
2018-May-18 06:29N 40°39' W 074°04'0 0.0
2018-May-18 05:59N 40°39' W 074°04'0 0.0
2018-May-18 05:29N 40°39' W 074°04'0 0.0
2018-May-18 04:59N 40°39' W 074°04'0 0.0
2018-May-18 04:29N 40°39' W 074°04'0 0.0
2018-May-18 04:01N 40°39' W 074°04'4 8.5
2018-May-18 03:30N 40°42' W 074°01'4 8.6
2018-May-18 03:00N 40°39' W 074°04'0 0.0
2018-May-18 02:30N 40°39' W 074°04'4 8.6
2018-May-18 02:00N 40°42' W 074°01'4 8.6
2018-May-18 01:30N 40°39' W 074°04'0 0.0
2018-May-18 01:00N 40°39' W 074°04'0 0.0
2018-May-18 00:30N 40°39' W 074°04'4 8.6
2018-May-18 00:00N 40°42' W 074°01'4 8.6
2018-May-17 23:30N 40°39' W 074°04'3 5.7
2018-May-17 23:01N 40°41' W 074°02'1 2.6
2018-May-17 22:31N 40°40' W 074°03'2 3.3
2018-May-17 22:00N 40°41' W 074°02'1 1.5
2018-May-17 21:31N 40°41' W 074°02'2 4.1
2018-May-17 21:00N 40°39' W 074°04'3 6.8
2018-May-17 20:31N 40°42' W 074°01'4 7.6
2018-May-17 20:00N 40°39' W 074°04'0 0.1
2018-May-17 19:30N 40°39' W 074°04'0 0.0
2018-May-17 19:00N 40°39' W 074°04'0 0.0
2018-May-17 18:30N 40°39' W 074°04'0 0.0
2018-May-17 18:00N 40°39' W 074°04'0 0.0
2018-May-17 17:30N 40°39' W 074°04'0 0.0
2018-May-17 17:00N 40°39' W 074°04'0 0.0
2018-May-17 16:30N 40°39' W 074°04'0 0.0
2018-May-17 16:00N 40°39' W 074°04'4 8.6
2018-May-17 15:30N 40°42' W 074°01'4 8.5
2018-May-17 15:00N 40°39' W 074°04'4 8.6
2018-May-17 14:31N 40°42' W 074°01'4 8.5
2018-May-17 14:01N 40°39' W 074°04'3 5.3
2018-May-17 13:30N 40°41' W 074°02'0 0.3
2018-May-17 13:01N 40°41' W 074°02'1 2.2
2018-May-17 12:30N 40°40' W 074°03'1 2.1
2018-May-17 12:00N 40°41' W 074°02'2 4.8
2018-May-17 11:30N 40°39' W 074°04'4 7.7
2018-May-17 11:00N 40°42' W 074°01'4 8.2
2018-May-17 10:31N 40°39' W 074°04'0 0.0
2018-May-17 09:59N 40°39' W 074°04'0 0.0
2018-May-17 09:31N 40°39' W 074°04'0 0.0
2018-May-17 09:01N 40°39' W 074°04'0 0.0
2018-May-17 08:28N 40°39' W 074°04'0 0.0
2018-May-17 07:58N 40°39' W 074°04'0 0.0
2018-May-17 07:28N 40°39' W 074°04'0 0.0
2018-May-17 06:58N 40°39' W 074°04'0 0.0
2018-May-17 06:28N 40°39' W 074°04'0 0.0
2018-May-17 05:58N 40°39' W 074°04'0 0.0
2018-May-17 05:28N 40°39' W 074°04'0 0.0
2018-May-17 04:58N 40°39' W 074°04'0 0.0
2018-May-17 04:28N 40°39' W 074°04'0 0.0
2018-May-17 03:55N 40°39' W 074°04'0 0.1
2018-May-17 03:30N 40°39' W 074°04'0 0.1
2018-May-17 03:00N 40°39' W 074°04'0 0.0
2018-May-17 02:30N 40°39' W 074°04'4 8.6
2018-May-17 02:00N 40°42' W 074°01'4 8.6
2018-May-17 01:30N 40°39' W 074°04'0 0.0
2018-May-17 00:25N 40°39' W 074°04'410.4
2018-May-17 00:00N 40°42' W 074°01'4 8.6
2018-May-16 23:31N 40°39' W 074°04'2 3.0
2018-May-16 23:01N 40°40' W 074°03'1 2.8
2018-May-16 22:30N 40°41' W 074°02'1 2.1
2018-May-16 21:50N 40°42' W 074°01'1 3.9
2018-May-16 21:30N 40°41' W 074°02'2 4.4
2018-May-16 21:00N 40°39' W 074°03'2 4.7
2018-May-16 20:30N 40°41' W 074°02'3 6.4
2018-May-16 20:00N 40°39' W 074°04'0 0.0
2018-May-16 19:30N 40°39' W 074°04'0 0.1
2018-May-16 19:00N 40°39' W 074°04'0 0.1
2018-May-16 18:30N 40°39' W 074°04'0 0.0
2018-May-16 18:00N 40°39' W 074°04'0 0.1
2018-May-16 17:30N 40°39' W 074°04'4 8.7
2018-May-16 17:00N 40°42' W 074°01'4 8.5
2018-May-16 16:30N 40°39' W 074°04'4 8.7
2018-May-16 16:01N 40°42' W 074°01'4 8.6
2018-May-16 15:31N 40°39' W 074°04'0 0.0
2018-May-16 15:00N 40°39' W 074°04'4 8.6
2018-May-16 14:30N 40°42' W 074°01'4 8.6
2018-May-16 14:00N 40°39' W 074°04'2 3.5
2018-May-16 13:31N 40°40' W 074°03'1 2.4
2018-May-16 13:00N 40°41' W 074°02'1 2.7
2018-May-16 12:30N 40°40' W 074°03'1 2.7
2018-May-16 12:01N 40°41' W 074°02'2 4.3
2018-May-16 11:31N 40°39' W 074°03'3 6.0
2018-May-16 11:01N 40°42' W 074°01'4 7.7
2018-May-16 10:31N 40°39' W 074°04'1 1.6
2018-May-16 10:00N 40°38' W 074°04'1 1.2
2018-May-16 09:30N 40°39' W 074°04'0 0.4
2018-May-16 09:00N 40°39' W 074°04'0 0.0
2018-May-16 08:30N 40°39' W 074°04'0 0.1
2018-May-16 07:59N 40°39' W 074°04'0 0.0
2018-May-16 07:29N 40°39' W 074°04'0 0.0
2018-May-16 06:59N 40°39' W 074°04'0 0.0
2018-May-16 06:29N 40°39' W 074°04'0 0.0
2018-May-16 05:59N 40°39' W 074°04'0 0.0
2018-May-16 05:29N 40°39' W 074°04'0 0.0
2018-May-16 04:59N 40°39' W 074°04'0 0.0
2018-May-16 04:30N 40°39' W 074°04'0 0.0
2018-May-16 04:00N 40°39' W 074°04'4 8.6
2018-May-16 03:30N 40°42' W 074°01'4 8.6
2018-May-16 03:01N 40°39' W 074°04'0 0.0
2018-May-16 02:23N 40°39' W 074°04'411.2
2018-May-16 02:00N 40°42' W 074°01'4 8.5
2018-May-16 01:30N 40°39' W 074°04'0 0.0
2018-May-16 01:00N 40°39' W 074°04'0 0.0
2018-May-16 00:31N 40°39' W 074°04'4 8.6
2018-May-16 00:00N 40°42' W 074°01'4 8.6
2018-May-15 23:30N 40°39' W 074°04'4 7.2
2018-May-15 23:01N 40°42' W 074°02'3 5.8
2018-May-15 22:30N 40°39' W 074°03'3 6.2
2018-May-15 22:01N 40°42' W 074°02'1 2.4
2018-May-15 21:31N 40°41' W 074°02'1 2.1
2018-May-15 21:01N 40°40' W 074°03'2 3.3
2018-May-15 20:31N 40°41' W 074°02'3 6.4
2018-May-15 20:00N 40°39' W 074°04'0 0.0
2018-May-15 19:30N 40°39' W 074°04'0 0.0
2018-May-15 19:00N 40°39' W 074°04'0 0.0
2018-May-15 18:30N 40°39' W 074°04'0 0.0
2018-May-15 18:00N 40°39' W 074°04'0 0.0
2018-May-15 17:30N 40°39' W 074°04'0 0.0
2018-May-15 17:00N 40°39' W 074°04'0 0.0
2018-May-15 16:30N 40°39' W 074°04'0 0.0
2018-May-15 16:00N 40°39' W 074°04'0 0.0
2018-May-15 15:30N 40°39' W 074°04'0 0.0
2018-May-15 15:00N 40°39' W 074°04'0 0.2
2018-May-15 14:30N 40°39' W 074°04'4 7.8
2018-May-15 13:57N 40°42' W 074°01'4 9.7
2018-May-15 13:30N 40°39' W 074°04'1 1.5
2018-May-15 13:01N 40°39' W 074°03'4 7.3
2018-May-15 12:30N 40°42' W 074°01'4 8.7
2018-May-15 12:01N 40°39' W 074°04'3 6.0
2018-May-15 11:30N 40°41' W 074°02'1 1.5
2018-May-15 11:00N 40°42' W 074°01'4 7.5
2018-May-15 10:30N 40°39' W 074°04'4 8.6
2018-May-15 10:00N 40°42' W 074°01'4 8.6
2018-May-15 09:30N 40°39' W 074°04'0 0.1
2018-May-15 09:00N 40°39' W 074°04'0 0.0
2018-May-15 08:30N 40°39' W 074°04'0 0.0
2018-May-15 07:58N 40°39' W 074°04'0 0.0
2018-May-15 07:28N 40°39' W 074°04'0 0.0
2018-May-15 06:58N 40°39' W 074°04'0 0.0
2018-May-15 06:28N 40°39' W 074°04'0 0.0
2018-May-15 05:58N 40°39' W 074°04'0 0.0
2018-May-15 05:28N 40°39' W 074°04'0 0.0
2018-May-15 04:58N 40°39' W 074°04'0 0.0
2018-May-15 04:30N 40°39' W 074°04'0 0.0
2018-May-15 04:00N 40°39' W 074°04'4 8.6
2018-May-15 03:30N 40°42' W 074°01'4 8.6
2018-May-15 03:00N 40°39' W 074°04'0 0.0
2018-May-15 02:30N 40°39' W 074°04'4 8.5
2018-May-15 02:00N 40°42' W 074°01'4 8.6
2018-May-15 01:30N 40°39' W 074°04'0 0.1
2018-May-15 01:00N 40°39' W 074°04'0 0.0
2018-May-15 00:30N 40°39' W 074°04'4 8.6
2018-May-15 00:00N 40°42' W 074°01'4 8.6
2018-May-14 23:30N 40°39' W 074°04'3 5.0
2018-May-14 23:00N 40°41' W 074°02'1 2.5
2018-May-14 22:31N 40°40' W 074°03'1 1.7
2018-May-14 22:00N 40°40' W 074°03'1 2.6
2018-May-14 21:30N 40°42' W 074°02'3 6.5
2018-May-14 21:01N 40°39' W 074°04'  

Dump ship's entire track history